createdAt,value
2019-02-26T00:02:53.013Z,1.77
2019-02-26T00:05:51.802Z,1.76
2019-02-26T00:08:47.248Z,1.75
2019-02-26T00:11:41.038Z,1.71
2019-02-26T00:14:37.572Z,1.69
2019-02-26T00:17:38.565Z,1.69
2019-02-26T00:20:31.462Z,1.67
2019-02-26T00:23:27.887Z,1.63
2019-02-26T00:26:22.442Z,1.64
2019-02-26T00:29:17.680Z,1.61
2019-02-26T00:32:14.006Z,1.59
2019-02-26T00:35:11.040Z,1.56
2019-02-26T00:38:06.520Z,1.54
2019-02-26T00:41:03.928Z,1.54
2019-02-26T00:43:59.853Z,1.55
2019-02-26T00:46:57.624Z,1.53
2019-02-26T00:49:53.462Z,1.50
2019-02-26T00:52:52.135Z,1.50
2019-02-26T00:55:46.846Z,1.53
2019-02-26T00:58:44.161Z,1.50
2019-02-26T01:01:39.138Z,1.48
2019-02-26T01:04:36.674Z,1.41
2019-02-26T01:07:33.387Z,1.32
2019-02-26T01:10:29.241Z,1.28
2019-02-26T01:13:28.451Z,1.26
2019-02-26T01:16:22.561Z,1.26
2019-02-26T01:19:19.921Z,1.22
2019-02-26T01:22:15.413Z,1.14
2019-02-26T01:25:15.205Z,1.00
2019-02-26T01:28:08.286Z,0.93
2019-02-26T01:31:05.617Z,0.88
2019-02-26T01:34:00.044Z,0.90
2019-02-26T01:36:57.249Z,0.93
2019-02-26T01:39:53.845Z,1.00
2019-02-26T01:42:52.145Z,1.01
2019-02-26T01:45:46.921Z,1.01
2019-02-26T01:48:41.681Z,1.00
2019-02-26T01:51:39.227Z,1.00
2019-02-26T01:54:37.047Z,0.99
2019-02-26T01:57:31.662Z,0.99
2019-02-26T02:00:27.586Z,1.00
2019-02-26T02:03:25.551Z,0.95
2019-02-26T02:06:20.123Z,0.93
2019-02-26T02:09:18.679Z,0.90
2019-02-26T02:12:12.173Z,0.89
2019-02-26T02:15:10.033Z,0.88
2019-02-26T02:18:06.193Z,0.84
2019-02-26T02:21:00.142Z,0.81
2019-02-26T02:23:56.640Z,0.78
2019-02-26T02:26:55.476Z,0.75
2019-02-26T02:29:50.782Z,0.71
2019-02-26T02:32:50.393Z,0.68
2019-02-26T02:35:41.894Z,0.68
2019-02-26T02:38:37.433Z,0.69
2019-02-26T02:41:34.144Z,0.68
2019-02-26T02:44:30.380Z,0.66
2019-02-26T02:47:28.548Z,0.63
2019-02-26T02:50:23.525Z,0.62
2019-02-26T02:53:21.252Z,0.61
2019-02-26T02:56:17.972Z,0.59
2019-02-26T02:59:14.099Z,0.58
2019-02-26T03:02:12.031Z,0.56
2019-02-26T03:05:04.984Z,0.56
2019-02-26T03:08:02.453Z,0.56
2019-02-26T03:10:58.901Z,0.53
2019-02-26T03:13:55.682Z,0.52
2019-02-26T03:16:53.510Z,0.50
2019-02-26T03:19:48.223Z,0.49
2019-02-26T03:22:48.366Z,0.50
2019-02-26T03:25:41.598Z,0.50
2019-02-26T03:28:37.527Z,0.49
2019-02-26T03:31:34.807Z,0.45
2019-02-26T03:34:27.459Z,0.40
2019-02-26T03:37:25.848Z,0.37
2019-02-26T03:40:24.238Z,0.36
2019-02-26T03:43:18.472Z,0.36
2019-02-26T03:46:15.063Z,0.36
2019-02-26T03:49:11.813Z,0.33
2019-02-26T03:52:07.302Z,0.33
2019-02-26T03:55:06.213Z,0.27
2019-02-26T03:58:02.129Z,0.27
2019-02-26T04:00:56.189Z,0.26
2019-02-26T04:03:51.246Z,0.27
2019-02-26T04:06:48.730Z,0.28
2019-02-26T04:09:47.306Z,0.26
2019-02-26T04:12:42.330Z,0.24
2019-02-26T04:15:38.401Z,0.22
2019-02-26T04:18:34.816Z,0.18
2019-02-26T04:21:30.407Z,0.17
2019-02-26T04:24:29.045Z,0.18
2019-02-26T04:27:44.813Z,0.17
2019-02-26T04:31:16.069Z,0.16
2019-02-26T04:34:17.959Z,0.09
2019-02-26T04:37:46.819Z,0.06
2019-02-26T04:40:55.369Z,0.09
2019-02-26T04:44:13.579Z,0.08
2019-02-26T04:47:24.185Z,0.06
2019-02-26T04:50:23.022Z,0.06
2019-02-26T04:53:15.131Z,0.09
2019-02-26T04:56:14.854Z,0.09
2019-02-26T04:59:12.315Z,0.07
2019-02-26T05:02:05.660Z,0.02
2019-02-26T05:05:03.075Z,-0.06
2019-02-26T05:07:59.740Z,0.00
2019-02-26T05:10:57.483Z,0.00
2019-02-26T05:13:51.930Z,-0.02
2019-02-26T05:16:48.605Z,-0.04
2019-02-26T05:19:48.788Z,-0.05
2019-02-26T05:22:42.629Z,-0.07
2019-02-26T05:25:39.650Z,-0.11
2019-02-26T05:28:37.904Z,-0.09
2019-02-26T05:31:33.162Z,-0.08
2019-02-26T05:34:27.538Z,-0.07
2019-02-26T05:37:26.319Z,-0.07
2019-02-26T05:40:22.078Z,-0.07
2019-02-26T05:43:17.097Z,-0.11
2019-02-26T05:46:12.850Z,-0.15
2019-02-26T05:49:15.769Z,-0.15
2019-02-26T05:52:07.249Z,-0.15
2019-02-26T05:55:03.516Z,-0.13
2019-02-26T05:58:07.560Z,-0.13
2019-02-26T06:01:02.198Z,-0.13
2019-02-26T06:03:57.743Z,-0.14
2019-02-26T06:06:56.291Z,-0.14
2019-02-26T06:09:51.721Z,-0.14
2019-02-26T06:12:47.462Z,-0.16
2019-02-26T06:15:43.091Z,-0.17
2019-02-26T06:18:41.288Z,-0.17
2019-02-26T06:21:34.751Z,-0.19
2019-02-26T06:24:33.237Z,-0.19
2019-02-26T06:27:27.590Z,-0.20
2019-02-26T06:30:23.508Z,-0.24
2019-02-26T06:33:21.025Z,-0.22
2019-02-26T06:36:18.547Z,-0.25
2019-02-26T06:39:14.022Z,-0.22
2019-02-26T06:42:12.182Z,-0.20
2019-02-26T06:45:08.508Z,-0.18
2019-02-26T06:48:03.814Z,-0.14
2019-02-26T06:51:02.165Z,-0.07
2019-02-26T06:53:57.068Z,0.00
2019-02-26T06:56:52.842Z,0.05
2019-02-26T06:59:55.130Z,0.11
2019-02-26T07:02:48.196Z,0.16
2019-02-26T07:05:46.866Z,0.24
2019-02-26T07:08:44.503Z,0.32
2019-02-26T07:11:39.718Z,0.37
2019-02-26T07:14:35.326Z,0.44
2019-02-26T07:17:34.343Z,0.51
2019-02-26T07:20:34.023Z,0.57
2019-02-26T07:23:25.134Z,0.61
2019-02-26T07:26:23.124Z,0.70
2019-02-26T07:29:17.647Z,0.77
2019-02-26T07:32:19.778Z,0.89
2019-02-26T07:35:16.763Z,0.98
2019-02-26T07:38:11.243Z,1.08
2019-02-26T07:41:07.986Z,1.22
2019-02-26T07:44:08.697Z,1.32
2019-02-26T07:47:03.680Z,1.37
2019-02-26T07:50:01.072Z,1.43
2019-02-26T07:52:57.568Z,1.51
2019-02-26T07:55:50.937Z,1.59
2019-02-26T07:58:47.684Z,1.67
2019-02-26T08:01:45.245Z,1.79
2019-02-26T08:04:43.597Z,1.89
2019-02-26T08:07:37.384Z,2.00
2019-02-26T08:10:39.407Z,2.12
2019-02-26T08:13:32.101Z,2.24
2019-02-26T08:16:30.024Z,2.34
2019-02-26T08:19:23.683Z,2.44
2019-02-26T08:22:21.144Z,2.57
2019-02-26T08:25:18.039Z,2.73
2019-02-26T08:28:15.446Z,2.85
2019-02-26T08:31:13.345Z,2.93
2019-02-26T08:34:07.497Z,3.02
2019-02-26T08:37:03.214Z,3.10
2019-02-26T08:39:58.841Z,3.18
2019-02-26T08:42:54.935Z,3.28
2019-02-26T08:45:50.447Z,3.41
2019-02-26T08:48:48.874Z,3.60
2019-02-26T08:51:44.506Z,3.82
2019-02-26T08:54:41.091Z,4.01
2019-02-26T08:57:36.901Z,4.23
2019-02-26T09:00:34.681Z,4.41
2019-02-26T09:03:40.137Z,4.53
2019-02-26T09:06:27.092Z,4.72
2019-02-26T09:09:23.646Z,4.89
2019-02-26T09:12:22.260Z,5.12
2019-02-26T09:15:16.007Z,5.32
2019-02-26T09:18:12.849Z,5.42
2019-02-26T09:21:12.563Z,5.49
2019-02-26T09:24:07.753Z,5.56
2019-02-26T09:27:04.940Z,5.67
2019-02-26T09:29:58.620Z,5.75
2019-02-26T09:32:55.405Z,5.86
2019-02-26T09:35:52.215Z,6.04
2019-02-26T09:38:49.614Z,6.14
2019-02-26T09:41:45.549Z,6.29
2019-02-26T09:44:40.680Z,6.33
2019-02-26T09:47:40.169Z,6.41
2019-02-26T09:50:38.496Z,6.54
2019-02-26T09:53:34.298Z,6.71
2019-02-26T09:56:30.070Z,6.87
2019-02-26T09:59:26.443Z,6.98
2019-02-26T10:02:21.962Z,7.10
2019-02-26T10:05:18.585Z,7.28
2019-02-26T10:08:17.272Z,7.48
2019-02-26T10:11:11.988Z,7.67
2019-02-26T10:14:07.937Z,7.89
2019-02-26T10:17:04.183Z,8.06
2019-02-26T10:20:01.562Z,8.29
2019-02-26T10:23:00.751Z,8.54
2019-02-26T10:25:57.560Z,8.77
2019-02-26T10:28:56.865Z,8.92
2019-02-26T10:31:46.021Z,9.00
2019-02-26T10:34:43.139Z,9.05
2019-02-26T10:37:43.514Z,9.07
2019-02-26T10:40:50.567Z,9.26
2019-02-26T10:43:35.662Z,9.50
2019-02-26T10:46:34.517Z,9.64
2019-02-26T10:49:28.639Z,9.78
2019-02-26T10:52:24.731Z,9.97
2019-02-26T10:55:21.866Z,10.20
2019-02-26T10:58:16.920Z,10.30
2019-02-26T11:01:13.467Z,10.47
2019-02-26T11:04:11.093Z,10.56
2019-02-26T11:07:10.995Z,10.62
2019-02-26T11:10:03.761Z,10.79
2019-02-26T11:13:00.004Z,10.83
2019-02-26T11:15:57.569Z,10.95
2019-02-26T11:18:51.886Z,10.95
2019-02-26T11:21:51.960Z,10.93
2019-02-26T11:24:48.381Z,10.97
2019-02-26T11:27:45.428Z,11.14
2019-02-26T11:30:37.538Z,11.42
2019-02-26T11:33:38.534Z,11.53
2019-02-26T11:36:36.611Z,11.59
2019-02-26T11:39:31.787Z,11.63
2019-02-26T11:42:28.805Z,11.65
2019-02-26T11:45:27.293Z,11.73
2019-02-26T11:48:24.128Z,11.95
2019-02-26T11:51:20.070Z,12.16
2019-02-26T11:54:17.698Z,12.20
2019-02-26T11:57:13.521Z,12.24
2019-02-26T12:00:09.200Z,12.37
2019-02-26T12:03:05.165Z,12.53
2019-02-26T12:06:02.108Z,12.65
2019-02-26T12:08:56.791Z,12.77
2019-02-26T12:11:56.046Z,12.86
2019-02-26T12:14:50.974Z,12.92
2019-02-26T12:17:51.624Z,12.94
2019-02-26T12:20:46.605Z,12.97
2019-02-26T12:23:43.692Z,13.06
2019-02-26T12:26:37.103Z,13.14
2019-02-26T12:29:33.924Z,13.34
2019-02-26T12:32:30.524Z,13.52
2019-02-26T12:35:26.094Z,13.71
2019-02-26T12:38:28.915Z,13.80
2019-02-26T12:41:25.772Z,13.76
2019-02-26T12:44:23.480Z,13.88
2019-02-26T12:47:21.783Z,13.99
2019-02-26T12:50:15.947Z,14.03
2019-02-26T12:53:14.994Z,13.90
2019-02-26T12:56:08.977Z,13.86
2019-02-26T12:59:07.161Z,13.91
2019-02-26T13:02:01.684Z,14.00
2019-02-26T13:04:57.494Z,14.12
2019-02-26T13:07:53.076Z,14.13
2019-02-26T13:10:55.274Z,14.14
2019-02-26T13:13:49.748Z,14.18
2019-02-26T13:16:46.318Z,14.24
2019-02-26T13:19:39.960Z,14.32
2019-02-26T13:22:35.686Z,14.35
2019-02-26T13:25:33.182Z,14.32
2019-02-26T13:28:29.889Z,14.32
2019-02-26T13:31:26.431Z,14.35
2019-02-26T13:34:21.960Z,14.42
2019-02-26T13:37:18.813Z,14.45
2019-02-26T13:40:14.495Z,14.53
2019-02-26T13:43:11.307Z,14.52
2019-02-26T13:46:08.199Z,14.43
2019-02-26T13:49:03.961Z,14.43
2019-02-26T13:51:59.469Z,14.51
2019-02-26T13:54:56.186Z,14.58
2019-02-26T13:57:51.989Z,14.60
2019-02-26T14:00:48.674Z,14.62
2019-02-26T14:03:46.645Z,14.61
2019-02-26T14:06:42.885Z,14.60
2019-02-26T14:09:39.509Z,14.60
2019-02-26T14:12:36.083Z,14.68
2019-02-26T14:15:35.887Z,14.82
2019-02-26T14:18:31.276Z,14.90
2019-02-26T14:21:27.911Z,14.91
2019-02-26T14:24:24.443Z,14.85
2019-02-26T14:27:20.989Z,14.87
2019-02-26T14:30:16.729Z,14.84
2019-02-26T14:33:13.144Z,14.78
2019-02-26T14:36:09.913Z,14.75
2019-02-26T14:39:06.298Z,14.81
2019-02-26T14:42:02.122Z,14.88
2019-02-26T14:44:58.860Z,14.86
2019-02-26T14:47:54.432Z,14.90
2019-02-26T14:50:51.158Z,15.01
2019-02-26T14:53:49.149Z,15.09
2019-02-26T14:56:44.375Z,15.07
2019-02-26T14:59:41.887Z,15.00
2019-02-26T15:02:37.504Z,15.04
2019-02-26T15:05:33.638Z,15.28
2019-02-26T15:08:29.118Z,15.41
2019-02-26T15:11:25.657Z,15.61
2019-02-26T15:14:22.195Z,15.94
2019-02-26T15:17:20.875Z,16.07
2019-02-26T15:20:16.629Z,15.99
2019-02-26T15:23:12.608Z,16.26
2019-02-26T15:26:09.310Z,16.58
2019-02-26T15:29:06.665Z,16.56
2019-02-26T15:32:04.748Z,16.52
2019-02-26T15:35:00.107Z,16.53
2019-02-26T15:37:57.609Z,16.49
2019-02-26T15:40:53.486Z,16.37
2019-02-26T15:43:49.880Z,16.31
2019-02-26T15:46:46.444Z,16.32
2019-02-26T15:49:42.874Z,16.01
2019-02-26T15:52:37.916Z,15.73
2019-02-26T15:55:34.909Z,15.52
2019-02-26T15:58:31.420Z,15.43
2019-02-26T16:01:30.727Z,15.37
2019-02-26T16:04:27.498Z,15.27
2019-02-26T16:07:23.851Z,15.17
2019-02-26T16:10:22.254Z,15.01
2019-02-26T16:13:16.885Z,14.82
2019-02-26T16:16:12.937Z,14.71
2019-02-26T16:19:09.374Z,14.58
2019-02-26T16:22:05.357Z,14.48
2019-02-26T16:25:02.077Z,14.39
2019-02-26T16:27:59.914Z,14.24
2019-02-26T16:30:55.959Z,14.12
2019-02-26T16:33:51.706Z,13.77
2019-02-26T16:36:48.165Z,13.77
2019-02-26T16:39:43.717Z,13.60
2019-02-26T16:42:44.326Z,13.41
2019-02-26T16:45:36.988Z,13.24
2019-02-26T16:48:34.538Z,13.10
2019-02-26T16:51:30.017Z,12.95
2019-02-26T16:54:25.710Z,12.78
2019-02-26T16:57:20.052Z,12.69
2019-02-26T17:00:16.766Z,12.54
2019-02-26T17:03:13.534Z,12.41
2019-02-26T17:06:10.297Z,12.21
2019-02-26T17:09:06.878Z,12.05
2019-02-26T17:12:03.652Z,11.89
2019-02-26T17:14:59.311Z,11.75
2019-02-26T17:17:56.863Z,11.60
2019-02-26T17:20:56.488Z,11.42
2019-02-26T17:23:49.791Z,11.24
2019-02-26T17:26:45.812Z,11.04
2019-02-26T17:29:42.589Z,10.92
2019-02-26T17:32:39.128Z,10.82
2019-02-26T17:35:34.628Z,10.73
2019-02-26T17:38:32.430Z,10.58
2019-02-26T17:41:27.803Z,10.43
2019-02-26T17:44:24.041Z,10.28
2019-02-26T17:47:19.936Z,10.17
2019-02-26T17:50:15.538Z,10.06
2019-02-26T17:53:12.142Z,9.96
2019-02-26T17:56:07.652Z,9.89
2019-02-26T17:59:05.433Z,9.77
2019-02-26T18:02:00.754Z,9.67
2019-02-26T18:04:58.455Z,9.55
2019-02-26T18:07:54.134Z,9.43
2019-02-26T18:10:50.311Z,9.32
2019-02-26T18:13:46.065Z,9.22
2019-02-26T18:16:43.733Z,9.16
2019-02-26T18:19:40.282Z,9.06
2019-02-26T18:22:38.053Z,8.97
2019-02-26T18:25:34.364Z,8.85
2019-02-26T18:28:29.680Z,8.78
2019-02-26T18:31:26.747Z,8.68
2019-02-26T18:34:21.633Z,8.55
2019-02-26T18:37:17.727Z,8.46
2019-02-26T18:40:13.730Z,8.36
2019-02-26T18:43:11.664Z,8.26
2019-02-26T18:46:07.650Z,8.17
2019-02-26T18:49:05.202Z,8.05
2019-02-26T18:51:59.607Z,7.93
2019-02-26T18:54:56.160Z,7.83
2019-02-26T18:57:51.725Z,7.76
2019-02-26T19:00:49.191Z,7.69
2019-02-26T19:03:44.968Z,7.63
2019-02-26T19:06:41.164Z,7.56
2019-02-26T19:09:37.693Z,7.51
2019-02-26T19:12:34.544Z,7.48
2019-02-26T19:15:30.987Z,7.43
2019-02-26T19:18:27.610Z,7.39
2019-02-26T19:21:24.087Z,7.35
2019-02-26T19:24:21.191Z,7.33
2019-02-26T19:27:19.167Z,7.35
2019-02-26T19:30:14.472Z,7.34
2019-02-26T19:33:10.080Z,7.31
2019-02-26T19:36:06.905Z,7.31
2019-02-26T19:39:03.573Z,7.29
2019-02-26T19:41:59.540Z,7.29
2019-02-26T19:44:55.757Z,7.28
2019-02-26T19:47:50.340Z,7.25
2019-02-26T19:50:48.721Z,7.23
2019-02-26T19:53:43.666Z,7.21
2019-02-26T19:56:40.234Z,7.21
2019-02-26T19:59:35.528Z,7.22
2019-02-26T20:02:32.276Z,7.25
2019-02-26T20:05:27.381Z,7.26
2019-02-26T20:08:23.615Z,7.28
2019-02-26T20:11:22.857Z,7.31
2019-02-26T20:14:21.538Z,7.29
2019-02-26T20:17:15.050Z,7.29
2019-02-26T20:20:11.498Z,7.28
2019-02-26T20:23:08.179Z,7.26
2019-02-26T20:26:04.821Z,7.24
2019-02-26T20:29:02.404Z,7.22
2019-02-26T20:31:58.921Z,7.20
2019-02-26T20:34:54.815Z,7.15
2019-02-26T20:37:49.716Z,7.11
2019-02-26T20:40:48.925Z,7.09
2019-02-26T20:43:43.207Z,7.07
2019-02-26T20:46:41.231Z,7.08
2019-02-26T20:49:37.048Z,7.06
2019-02-26T20:52:33.546Z,7.05
2019-02-26T20:55:30.700Z,7.02
2019-02-26T20:58:27.314Z,6.98
2019-02-26T21:01:24.054Z,6.94
2019-02-26T21:04:20.621Z,6.93
2019-02-26T21:07:16.141Z,6.88
2019-02-26T21:10:15.408Z,6.80
2019-02-26T21:13:10.315Z,6.76
2019-02-26T21:16:06.102Z,6.72
2019-02-26T21:19:03.455Z,6.66
2019-02-26T21:21:59.273Z,6.59
2019-02-26T21:24:55.750Z,6.53
2019-02-26T21:27:52.085Z,6.48
2019-02-26T21:30:48.866Z,6.45
2019-02-26T21:33:44.465Z,6.43
2019-02-26T21:36:41.224Z,6.48
2019-02-26T21:39:36.917Z,6.48
2019-02-26T21:42:34.668Z,6.50
2019-02-26T21:45:30.010Z,6.53
2019-02-26T21:48:26.241Z,6.55
2019-02-26T21:51:21.260Z,6.58
2019-02-26T21:54:17.840Z,6.58
2019-02-26T21:57:13.264Z,6.59
2019-02-26T22:00:10.852Z,6.60
2019-02-26T22:03:07.557Z,6.62
2019-02-26T22:06:05.577Z,6.62
2019-02-26T22:08:59.321Z,6.63
2019-02-26T22:11:56.486Z,6.63
2019-02-26T22:14:51.477Z,6.62
2019-02-26T22:17:48.270Z,6.62
2019-02-26T22:20:44.872Z,6.61
2019-02-26T22:23:42.630Z,6.58
2019-02-26T22:26:39.050Z,6.55
2019-02-26T22:29:36.390Z,6.53
2019-02-26T22:32:32.679Z,6.50
2019-02-26T22:35:28.675Z,6.44
2019-02-26T22:38:25.697Z,6.41
2019-02-26T22:41:21.094Z,6.35
2019-02-26T22:44:18.728Z,6.30
2019-02-26T22:47:13.613Z,6.25
2019-02-26T22:50:09.449Z,6.20
2019-02-26T22:53:06.897Z,6.14
2019-02-26T22:56:05.628Z,6.07
2019-02-26T22:59:00.911Z,6.04
2019-02-26T23:01:58.130Z,6.00
2019-02-26T23:04:54.017Z,5.95
2019-02-26T23:07:50.374Z,5.92
2019-02-26T23:10:46.848Z,5.93
2019-02-26T23:13:42.595Z,5.97
2019-02-26T23:16:39.200Z,5.98
2019-02-26T23:19:36.674Z,5.98
2019-02-26T23:22:31.338Z,5.98
2019-02-26T23:25:27.174Z,5.96
2019-02-26T23:28:23.108Z,5.93
2019-02-26T23:31:19.979Z,5.88
2019-02-26T23:34:21.694Z,5.85
2019-02-26T23:37:14.211Z,5.83
2019-02-26T23:40:10.648Z,5.78
2019-02-26T23:43:07.084Z,5.76
2019-02-26T23:46:03.857Z,5.74
2019-02-26T23:48:59.547Z,5.72
2019-02-26T23:51:56.594Z,5.69
2019-02-26T23:54:53.185Z,5.70
2019-02-26T23:57:49.921Z,5.73
